createdAt,value
2019-02-17T00:00:10.738Z,17.33
2019-02-17T00:02:41.076Z,17.47
2019-02-17T00:05:10.154Z,17.20
2019-02-17T00:07:39.195Z,20.07
2019-02-17T00:10:08.297Z,17.37
2019-02-17T00:12:37.563Z,16.60
2019-02-17T00:15:07.070Z,17.30
2019-02-17T00:17:36.117Z,17.03
2019-02-17T00:20:06.518Z,16.70
2019-02-17T00:22:36.302Z,16.63
2019-02-17T00:25:05.641Z,17.67
2019-02-17T00:27:34.753Z,16.53
2019-02-17T00:30:03.842Z,16.70
2019-02-17T00:32:32.906Z,15.67
2019-02-17T00:35:02.029Z,16.43
2019-02-17T00:37:31.038Z,16.50
2019-02-17T00:40:00.269Z,16.37
2019-02-17T00:42:29.455Z,17.37
2019-02-17T00:44:58.471Z,17.37
2019-02-17T00:47:27.542Z,17.23
2019-02-17T00:49:56.667Z,16.87
2019-02-17T00:52:25.808Z,16.90
2019-02-17T00:54:54.914Z,16.63
2019-02-17T00:57:24.558Z,16.47
2019-02-17T00:59:53.742Z,16.23
2019-02-17T01:02:22.754Z,16.23
2019-02-17T01:04:51.864Z,16.30
2019-02-17T01:07:20.946Z,14.17
2019-02-17T01:09:50.080Z,14.43
2019-02-17T01:12:19.194Z,13.80
2019-02-17T01:14:48.340Z,13.47
2019-02-17T01:17:19.195Z,14.60
2019-02-17T01:19:48.227Z,15.07
2019-02-17T01:22:17.373Z,15.60
2019-02-17T01:24:46.521Z,16.17
2019-02-17T01:27:15.560Z,16.10
2019-02-17T01:29:44.674Z,14.17
2019-02-17T01:32:13.760Z,14.93
2019-02-17T01:34:42.865Z,13.07
2019-02-17T01:37:11.975Z,13.77
2019-02-17T01:39:42.496Z,13.80
2019-02-17T01:42:11.603Z,14.23
2019-02-17T01:44:40.701Z,14.83
2019-02-17T01:47:09.770Z,14.10
2019-02-17T01:49:38.975Z,14.57
2019-02-17T01:52:08.273Z,15.73
2019-02-17T01:54:37.374Z,13.37
2019-02-17T01:57:06.614Z,14.13
2019-02-17T01:59:35.721Z,12.70
2019-02-17T02:02:05.682Z,12.23
2019-02-17T02:04:42.583Z,10.53
2019-02-17T02:07:11.716Z,11.93
2019-02-17T02:09:40.751Z,11.97
2019-02-17T02:12:09.869Z,10.93
2019-02-17T02:14:39.065Z,11.90
2019-02-17T02:17:08.134Z,10.77
2019-02-17T02:19:37.708Z,12.23
2019-02-17T02:22:06.805Z,9.93
2019-02-17T02:24:35.881Z,10.50
2019-02-17T02:27:05.002Z,9.73
2019-02-17T02:29:40.710Z,9.30
2019-02-17T02:32:04.853Z,10.43
2019-02-17T02:34:33.853Z,9.97
2019-02-17T02:37:03.060Z,9.97
2019-02-17T02:39:32.047Z,10.07
2019-02-17T02:42:01.086Z,11.60
2019-02-17T02:44:30.133Z,9.87
2019-02-17T02:46:59.196Z,10.27
2019-02-17T02:49:28.245Z,9.57
2019-02-17T02:51:57.427Z,10.37
2019-02-17T02:54:26.463Z,10.10
2019-02-17T02:56:55.526Z,9.83
2019-02-17T02:59:24.701Z,9.13
2019-02-17T03:01:54.005Z,9.67
2019-02-17T03:04:23.154Z,9.83
2019-02-17T03:06:57.064Z,10.13
2019-02-17T03:09:26.141Z,9.87
2019-02-17T03:11:55.551Z,10.17
2019-02-17T03:14:24.601Z,9.93
2019-02-17T03:16:53.749Z,9.43
2019-02-17T03:19:22.822Z,10.30
2019-02-17T03:21:51.794Z,10.03
2019-02-17T03:24:20.807Z,10.47
2019-02-17T03:26:49.840Z,10.23
2019-02-17T03:29:18.833Z,10.37
2019-02-17T03:31:48.069Z,10.67
2019-02-17T03:34:17.089Z,9.90
2019-02-17T03:36:46.122Z,9.93
2019-02-17T03:39:15.218Z,9.87
2019-02-17T03:41:44.325Z,10.37
2019-02-17T03:44:13.301Z,10.10
2019-02-17T03:46:42.377Z,10.70
2019-02-17T03:49:11.482Z,9.83
2019-02-17T03:51:41.837Z,10.43
2019-02-17T03:54:10.845Z,9.03
2019-02-17T03:56:39.921Z,9.90
2019-02-17T03:59:09.101Z,9.33
2019-02-17T04:01:38.240Z,10.50
2019-02-17T04:04:07.317Z,10.30
2019-02-17T04:06:36.288Z,10.47
2019-02-17T04:09:07.708Z,10.10
2019-02-17T04:11:37.021Z,10.57
2019-02-17T04:14:06.108Z,10.07
2019-02-17T04:16:35.101Z,10.00
2019-02-17T04:19:04.298Z,10.10
2019-02-17T04:21:33.552Z,10.20
2019-02-17T04:24:02.671Z,10.00
2019-02-17T04:26:31.698Z,10.70
2019-02-17T04:29:00.817Z,9.40
2019-02-17T04:31:29.909Z,9.30
2019-02-17T04:33:58.977Z,9.23
2019-02-17T04:36:28.058Z,10.40
2019-02-17T04:38:57.397Z,9.10
2019-02-17T04:41:26.496Z,9.70
2019-02-17T04:43:55.567Z,9.57
2019-02-17T04:46:24.687Z,10.17
2019-02-17T04:48:53.741Z,9.87
2019-02-17T04:51:22.832Z,9.90
2019-02-17T04:53:51.865Z,9.47
2019-02-17T04:56:20.832Z,9.63
2019-02-17T04:58:49.862Z,9.47
2019-02-17T05:01:18.909Z,9.87
2019-02-17T05:03:47.929Z,9.97
2019-02-17T05:06:16.925Z,10.27
2019-02-17T05:08:45.988Z,9.43
2019-02-17T05:11:14.987Z,9.43
2019-02-17T05:13:43.979Z,9.70
2019-02-17T05:16:13.114Z,9.13
2019-02-17T05:18:42.176Z,9.50
2019-02-17T05:21:11.181Z,9.77
2019-02-17T05:23:40.153Z,10.20
2019-02-17T05:26:11.602Z,10.10
2019-02-17T05:28:40.727Z,9.77
2019-02-17T05:31:09.766Z,9.47
2019-02-17T05:33:38.808Z,10.17
2019-02-17T05:36:07.880Z,9.30
2019-02-17T05:38:36.981Z,10.47
2019-02-17T05:41:07.220Z,9.77
2019-02-17T05:43:36.319Z,10.37
2019-02-17T05:46:05.462Z,9.73
2019-02-17T05:48:34.433Z,9.33
2019-02-17T05:51:03.453Z,10.30
2019-02-17T05:53:32.467Z,9.93
2019-02-17T05:56:01.565Z,10.70
2019-02-17T05:58:30.682Z,10.17
2019-02-17T06:01:03.911Z,11.10
2019-02-17T06:03:30.589Z,11.00
2019-02-17T06:05:59.626Z,10.70
2019-02-17T06:08:28.656Z,12.57
2019-02-17T06:10:57.675Z,11.13
2019-02-17T06:13:26.673Z,11.37
2019-02-17T06:15:55.705Z,11.00
2019-02-17T06:18:24.733Z,10.40
2019-02-17T06:20:53.722Z,9.23
2019-02-17T06:23:22.791Z,10.83
2019-02-17T06:25:51.802Z,11.30
2019-02-17T06:28:20.822Z,10.33
2019-02-17T06:30:49.958Z,10.50
2019-02-17T06:33:18.964Z,10.00
2019-02-17T06:35:48.010Z,10.00
2019-02-17T06:38:16.992Z,9.23
2019-02-17T06:40:45.974Z,9.83
2019-02-17T06:43:14.975Z,9.43
2019-02-17T06:45:43.995Z,9.00
2019-02-17T06:48:13.027Z,9.07
2019-02-17T06:50:42.023Z,9.90
2019-02-17T06:53:11.644Z,9.47
2019-02-17T06:55:45.440Z,9.47
2019-02-17T06:58:14.419Z,9.63
2019-02-17T07:00:48.973Z,10.00
2019-02-17T07:03:18.088Z,9.23
2019-02-17T07:05:56.816Z,9.20
2019-02-17T07:08:25.893Z,10.83
2019-02-17T07:10:54.958Z,9.67
2019-02-17T07:13:23.963Z,10.33
2019-02-17T07:15:52.958Z,10.77
2019-02-17T07:18:23.558Z,10.37
2019-02-17T07:20:52.554Z,10.60
2019-02-17T07:23:21.687Z,10.30
2019-02-17T07:25:50.686Z,10.27
2019-02-17T07:28:19.821Z,10.33
2019-02-17T07:30:48.998Z,10.53
2019-02-17T07:33:18.073Z,10.50
2019-02-17T07:35:47.053Z,10.77
2019-02-17T07:38:16.045Z,11.13
2019-02-17T07:40:45.192Z,11.80
2019-02-17T07:43:14.273Z,11.83
2019-02-17T07:45:43.333Z,11.63
2019-02-17T07:48:12.313Z,11.43
2019-02-17T07:50:41.357Z,10.33
2019-02-17T07:53:10.393Z,11.40
2019-02-17T07:55:39.568Z,11.83
2019-02-17T07:58:08.526Z,11.40
2019-02-17T08:00:37.556Z,12.03
2019-02-17T08:03:06.562Z,11.57
2019-02-17T08:05:35.665Z,11.40
2019-02-17T08:08:04.841Z,11.70
2019-02-17T08:10:33.865Z,12.50
2019-02-17T08:13:02.908Z,12.20
2019-02-17T08:15:31.901Z,14.53
2019-02-17T08:18:00.976Z,12.77
2019-02-17T08:20:29.969Z,12.83
2019-02-17T08:22:59.120Z,14.63
2019-02-17T08:25:28.116Z,13.03
2019-02-17T08:27:57.085Z,12.60
2019-02-17T08:30:26.092Z,12.37
2019-02-17T08:32:55.114Z,12.23
2019-02-17T08:35:24.117Z,12.50
2019-02-17T08:37:53.231Z,13.40
2019-02-17T08:40:22.212Z,13.30
2019-02-17T08:42:51.238Z,13.03
2019-02-17T08:45:20.266Z,13.80
2019-02-17T08:47:49.302Z,13.37
2019-02-17T08:50:19.950Z,13.03
2019-02-17T08:52:49.203Z,13.20
2019-02-17T08:55:18.445Z,13.50
2019-02-17T08:57:47.614Z,13.50
2019-02-17T09:00:17.085Z,14.20
2019-02-17T09:02:46.253Z,13.63
2019-02-17T09:05:15.409Z,12.83
2019-02-17T09:07:44.418Z,13.30
2019-02-17T09:10:13.741Z,12.70
2019-02-17T09:12:42.765Z,13.50
2019-02-17T09:15:12.542Z,12.47
2019-02-17T09:17:41.630Z,12.87
2019-02-17T09:20:11.128Z,13.07
2019-02-17T09:22:41.730Z,14.07
2019-02-17T09:25:11.456Z,14.10
2019-02-17T09:27:40.850Z,14.63
2019-02-17T09:30:14.579Z,14.03
2019-02-17T09:32:44.189Z,16.87
2019-02-17T09:35:14.854Z,13.23
2019-02-17T09:37:45.907Z,14.77
2019-02-17T09:40:15.895Z,13.30
2019-02-17T09:42:47.067Z,12.93
2019-02-17T09:45:18.021Z,14.03
2019-02-17T09:47:50.790Z,14.03
2019-02-17T09:50:21.696Z,14.50
2019-02-17T09:52:51.478Z,14.33
2019-02-17T09:55:22.987Z,14.33
2019-02-17T09:57:54.520Z,14.97
2019-02-17T10:00:25.357Z,14.40
2019-02-17T10:02:54.374Z,13.80
2019-02-17T10:05:23.479Z,14.70
2019-02-17T10:07:52.500Z,13.53
2019-02-17T10:10:24.649Z,14.10
2019-02-17T10:12:53.700Z,13.83
2019-02-17T10:15:22.731Z,13.90
2019-02-17T10:17:53.845Z,14.07
2019-02-17T10:20:24.477Z,14.13
2019-02-17T10:22:53.493Z,14.73
2019-02-17T10:25:22.716Z,14.57
2019-02-17T10:27:51.820Z,14.17
2019-02-17T10:30:20.922Z,14.93
2019-02-17T10:32:49.979Z,15.00
2019-02-17T10:35:19.841Z,14.93
2019-02-17T10:37:48.989Z,14.37
2019-02-17T10:40:18.253Z,14.80
2019-02-17T10:42:48.469Z,14.77
2019-02-17T10:45:17.584Z,15.67
2019-02-17T10:47:46.568Z,15.13
2019-02-17T10:50:15.713Z,16.20
2019-02-17T10:52:44.757Z,15.93
2019-02-17T10:55:14.058Z,15.87
2019-02-17T10:57:43.186Z,16.47
2019-02-17T11:00:14.286Z,16.20
2019-02-17T11:02:47.020Z,18.30
2019-02-17T11:05:14.347Z,16.70
2019-02-17T11:07:43.362Z,17.03
2019-02-17T11:10:13.209Z,16.73
2019-02-17T11:12:42.305Z,17.50
2019-02-17T11:15:13.569Z,16.57
2019-02-17T11:17:42.714Z,17.03
2019-02-17T11:20:12.056Z,16.63
2019-02-17T11:22:41.121Z,16.53
2019-02-17T11:25:10.291Z,15.30
2019-02-17T11:27:39.398Z,16.47
2019-02-17T11:30:10.652Z,16.30
2019-02-17T11:32:39.733Z,16.03
2019-02-17T11:35:09.030Z,16.43
2019-02-17T11:37:38.202Z,15.60
2019-02-17T11:40:09.337Z,15.97
2019-02-17T11:42:38.714Z,16.50
2019-02-17T11:45:10.172Z,16.20
2019-02-17T11:47:39.328Z,17.00
2019-02-17T11:50:09.335Z,16.37
2019-02-17T11:52:38.517Z,16.67
2019-02-17T11:55:10.180Z,17.03
2019-02-17T11:57:39.425Z,16.77
2019-02-17T12:00:14.731Z,16.63
2019-02-17T12:02:43.845Z,15.57
2019-02-17T12:05:13.364Z,15.60
2019-02-17T12:07:42.426Z,16.97
2019-02-17T12:10:11.746Z,17.20
2019-02-17T12:12:43.197Z,16.87
2019-02-17T12:15:14.355Z,17.40
2019-02-17T12:17:43.491Z,16.87
2019-02-17T12:20:34.202Z,17.47
2019-02-17T12:23:08.091Z,17.13
2019-02-17T12:25:56.337Z,17.63
2019-02-17T12:28:33.447Z,16.83
2019-02-17T12:31:02.634Z,17.33
2019-02-17T12:33:31.727Z,18.97
2019-02-17T12:36:00.700Z,17.60
2019-02-17T12:38:31.820Z,16.67
2019-02-17T12:41:00.901Z,16.67
2019-02-17T12:43:32.597Z,17.37
2019-02-17T12:46:01.653Z,17.70
2019-02-17T12:48:30.716Z,17.30
2019-02-17T12:51:00.269Z,17.80
2019-02-17T12:53:29.455Z,16.73
2019-02-17T12:55:58.715Z,18.20
2019-02-17T12:58:30.202Z,18.43
2019-02-17T13:00:58.552Z,19.10
2019-02-17T13:03:28.726Z,18.23
2019-02-17T13:05:58.017Z,17.60
2019-02-17T13:08:27.119Z,16.63
2019-02-17T13:10:56.218Z,16.83
2019-02-17T13:13:25.320Z,38.37
2019-02-17T13:15:54.300Z,20.27
2019-02-17T13:18:24.857Z,18.77
2019-02-17T13:20:54.206Z,24.27
2019-02-17T13:23:23.176Z,21.67
2019-02-17T13:25:52.262Z,19.50
2019-02-17T13:28:21.312Z,19.43
2019-02-17T13:30:53.624Z,19.20
2019-02-17T13:33:21.851Z,19.97
2019-02-17T13:35:50.852Z,20.27
2019-02-17T13:38:19.417Z,20.47
2019-02-17T13:40:47.950Z,20.53
2019-02-17T13:43:16.531Z,20.30
2019-02-17T13:45:45.543Z,22.20
2019-02-17T13:48:14.020Z,21.77
2019-02-17T13:50:42.824Z,19.73
2019-02-17T13:53:12.285Z,20.83
2019-02-17T13:55:41.305Z,24.03
2019-02-17T13:58:10.466Z,24.37
2019-02-17T14:00:39.534Z,23.00
2019-02-17T14:03:08.533Z,26.57
2019-02-17T14:05:37.552Z,30.77
2019-02-17T14:08:06.626Z,24.33
2019-02-17T14:10:35.678Z,24.33
2019-02-17T14:13:04.931Z,23.83
2019-02-17T14:15:34.218Z,24.13
2019-02-17T14:18:03.250Z,24.83
2019-02-17T14:20:32.372Z,24.63
2019-02-17T14:23:01.394Z,24.00
2019-02-17T14:25:30.417Z,23.70
2019-02-17T14:27:59.521Z,24.03
2019-02-17T14:30:30.378Z,24.30
2019-02-17T14:32:59.193Z,25.10
2019-02-17T14:35:28.262Z,24.43
2019-02-17T14:37:57.277Z,24.50
2019-02-17T14:40:26.370Z,25.20
2019-02-17T14:42:55.551Z,24.37
2019-02-17T14:45:24.709Z,24.43
2019-02-17T14:47:53.873Z,25.63
2019-02-17T14:50:23.187Z,24.63
2019-02-17T14:52:52.209Z,22.90
2019-02-17T14:55:21.311Z,23.87
2019-02-17T14:57:50.007Z,23.37
2019-02-17T15:00:18.651Z,22.10
2019-02-17T15:02:47.215Z,22.23
2019-02-17T15:05:15.838Z,24.27
2019-02-17T15:07:44.372Z,23.67
2019-02-17T15:10:13.278Z,23.17
2019-02-17T15:12:41.916Z,35.03
2019-02-17T15:15:10.519Z,26.53
2019-02-17T15:17:39.121Z,21.80
2019-02-17T15:20:09.176Z,20.60
2019-02-17T15:22:37.769Z,21.47
2019-02-17T15:25:07.485Z,21.90
2019-02-17T15:27:36.697Z,21.23
2019-02-17T15:30:07.700Z,21.50
2019-02-17T15:32:36.226Z,21.33
2019-02-17T15:35:04.933Z,20.80
2019-02-17T15:37:33.516Z,21.37
2019-02-17T15:40:02.113Z,20.90
2019-02-17T15:42:30.641Z,20.60
2019-02-17T15:45:01.121Z,20.80
2019-02-17T15:47:29.404Z,21.63
2019-02-17T15:49:58.045Z,24.40
2019-02-17T15:52:26.949Z,20.80
2019-02-17T15:54:56.485Z,20.57
2019-02-17T15:57:25.025Z,20.33
2019-02-17T15:59:53.571Z,19.47
2019-02-17T16:02:22.092Z,19.63
2019-02-17T16:04:50.837Z,19.33
2019-02-17T16:07:19.529Z,19.97
2019-02-17T16:09:48.098Z,20.30
2019-02-17T16:12:16.784Z,20.10
2019-02-17T16:14:45.313Z,20.83
2019-02-17T16:17:13.870Z,18.97
2019-02-17T16:19:42.524Z,22.47
2019-02-17T16:22:11.097Z,20.37
2019-02-17T16:24:39.623Z,19.03
2019-02-17T16:27:08.181Z,19.17
2019-02-17T16:29:36.695Z,18.47
2019-02-17T16:32:08.217Z,18.40
2019-02-17T16:34:38.738Z,17.13
2019-02-17T16:37:07.059Z,17.03
2019-02-17T16:39:35.681Z,20.13
2019-02-17T16:42:04.324Z,15.73
2019-02-17T16:44:32.912Z,14.67
2019-02-17T16:47:01.499Z,16.73
2019-02-17T16:49:30.022Z,15.17
2019-02-17T16:51:58.570Z,15.60
2019-02-17T16:54:27.114Z,18.67
2019-02-17T16:56:55.761Z,16.27
2019-02-17T16:59:24.403Z,14.93
2019-02-17T17:01:53.005Z,15.30
2019-02-17T17:04:22.129Z,14.43
2019-02-17T17:06:51.598Z,13.67
2019-02-17T17:09:20.652Z,14.37
2019-02-17T17:11:49.686Z,14.10
2019-02-17T17:14:19.867Z,14.70
2019-02-17T17:16:48.971Z,13.13
2019-02-17T17:19:18.066Z,14.20
2019-02-17T17:21:47.222Z,13.00
2019-02-17T17:24:16.333Z,14.10
2019-02-17T17:26:45.534Z,14.20
2019-02-17T17:29:14.762Z,12.80
2019-02-17T17:31:43.820Z,12.60
2019-02-17T17:34:12.866Z,13.47
2019-02-17T17:36:42.093Z,13.37
2019-02-17T17:39:11.285Z,12.83
2019-02-17T17:41:40.610Z,13.30
2019-02-17T17:44:09.729Z,13.17
2019-02-17T17:46:38.761Z,13.83
2019-02-17T17:49:07.794Z,14.20
2019-02-17T17:51:36.840Z,13.57
2019-02-17T17:54:05.963Z,13.40
2019-02-17T17:56:34.988Z,12.80
2019-02-17T17:59:04.147Z,14.17
2019-02-17T18:01:33.105Z,12.97
2019-02-17T18:04:02.194Z,13.10
2019-02-17T18:06:31.248Z,13.37
2019-02-17T18:09:00.298Z,13.20
2019-02-17T18:11:29.598Z,14.07
2019-02-17T18:14:00.561Z,14.23
2019-02-17T18:16:29.585Z,13.10
2019-02-17T18:18:58.675Z,14.27
2019-02-17T18:21:27.725Z,14.97
2019-02-17T18:23:56.786Z,13.97
2019-02-17T18:26:25.883Z,13.43
2019-02-17T18:28:54.974Z,14.40
2019-02-17T18:31:24.099Z,14.90
2019-02-17T18:33:55.013Z,14.73
2019-02-17T18:36:24.120Z,15.03
2019-02-17T18:38:53.228Z,15.10
2019-02-17T18:41:22.249Z,15.20
2019-02-17T18:43:51.236Z,14.70
2019-02-17T18:46:20.237Z,15.00
2019-02-17T18:48:49.918Z,15.37
2019-02-17T18:51:18.894Z,15.67
2019-02-17T18:53:48.038Z,15.43
2019-02-17T18:56:17.203Z,15.80
2019-02-17T18:58:46.341Z,14.70
2019-02-17T19:01:15.320Z,15.90
2019-02-17T19:03:44.326Z,16.53
2019-02-17T19:06:14.445Z,16.47
2019-02-17T19:08:44.831Z,16.43
2019-02-17T19:11:13.804Z,17.37
2019-02-17T19:13:42.812Z,16.53
2019-02-17T19:16:13.250Z,15.97
2019-02-17T19:18:42.384Z,16.83
2019-02-17T19:21:11.506Z,17.20
2019-02-17T19:23:40.596Z,17.43
2019-02-17T19:26:09.577Z,17.30
2019-02-17T19:28:38.681Z,17.20
2019-02-17T19:31:09.090Z,16.90
2019-02-17T19:33:38.142Z,17.37
2019-02-17T19:36:07.268Z,18.03
2019-02-17T19:38:36.505Z,19.10
2019-02-17T19:41:05.708Z,18.30
2019-02-17T19:43:34.750Z,18.43
2019-02-17T19:46:03.988Z,17.53
2019-02-17T19:48:33.076Z,18.63
2019-02-17T19:51:02.236Z,17.93
2019-02-17T19:53:31.274Z,18.10
2019-02-17T19:56:00.334Z,17.53
2019-02-17T19:58:29.330Z,17.33
2019-02-17T20:00:58.393Z,15.83
2019-02-17T20:03:46.495Z,15.93
2019-02-17T20:06:17.737Z,15.90
2019-02-17T20:08:49.383Z,16.43
2019-02-17T20:11:18.576Z,14.83
2019-02-17T20:13:47.732Z,16.73
2019-02-17T20:16:16.879Z,15.70
2019-02-17T20:18:45.910Z,14.63
2019-02-17T20:21:14.982Z,15.97
2019-02-17T20:23:44.214Z,15.40
2019-02-17T20:26:13.285Z,16.73
2019-02-17T20:28:43.689Z,17.63
2019-02-17T20:31:12.869Z,16.37
2019-02-17T20:33:59.553Z,16.63
2019-02-17T20:36:32.481Z,17.40
2019-02-17T20:39:01.596Z,17.23
2019-02-17T20:41:30.609Z,17.60
2019-02-17T20:43:59.934Z,18.10
2019-02-17T20:46:29.038Z,19.67
2019-02-17T20:48:58.044Z,17.50
2019-02-17T20:51:27.393Z,18.13
2019-02-17T20:53:56.562Z,17.97
2019-02-17T20:56:25.586Z,16.93
2019-02-17T20:58:54.666Z,17.50
2019-02-17T21:01:23.681Z,16.67
2019-02-17T21:03:52.714Z,16.63
2019-02-17T21:06:21.810Z,16.53
2019-02-17T21:08:51.074Z,16.40
2019-02-17T21:11:20.123Z,15.80
2019-02-17T21:13:49.349Z,17.33
2019-02-17T21:16:18.505Z,15.97
2019-02-17T21:18:47.686Z,16.87
2019-02-17T21:21:16.707Z,16.60
2019-02-17T21:23:45.733Z,16.27
2019-02-17T21:26:14.724Z,16.43
2019-02-17T21:28:43.885Z,16.23
2019-02-17T21:31:12.869Z,16.10
2019-02-17T21:33:42.522Z,16.60
2019-02-17T21:36:11.512Z,17.00
2019-02-17T21:38:40.605Z,17.37
2019-02-17T21:41:09.766Z,17.67
2019-02-17T21:43:38.890Z,16.97
2019-02-17T21:46:07.959Z,17.53
2019-02-17T21:48:37.109Z,16.63
2019-02-17T21:51:06.247Z,15.83
2019-02-17T21:53:35.371Z,16.33
2019-02-17T21:56:04.643Z,16.83
2019-02-17T21:58:33.830Z,16.90
2019-02-17T22:01:03.346Z,19.10
2019-02-17T22:03:32.478Z,18.53
2019-02-17T22:06:01.657Z,19.47
2019-02-17T22:08:30.729Z,17.90
2019-02-17T22:10:59.776Z,17.30
2019-02-17T22:13:28.821Z,18.37
2019-02-17T22:15:57.907Z,17.77
2019-02-17T22:18:26.947Z,17.57
2019-02-17T22:20:56.025Z,17.30
2019-02-17T22:23:25.011Z,18.10
2019-02-17T22:25:54.126Z,18.03
2019-02-17T22:28:23.247Z,17.13
2019-02-17T22:30:52.313Z,18.73
2019-02-17T22:33:21.466Z,20.27
2019-02-17T22:35:50.468Z,32.40
2019-02-17T22:38:19.510Z,27.80
2019-02-17T22:40:48.615Z,32.20
2019-02-17T22:43:17.597Z,50.43
2019-02-17T22:45:46.686Z,28.27
2019-02-17T22:48:15.724Z,21.03
2019-02-17T22:50:44.744Z,20.80
2019-02-17T22:53:13.728Z,19.10
2019-02-17T22:55:42.768Z,18.20
2019-02-17T22:58:11.929Z,19.53
2019-02-17T23:01:01.047Z,18.63
2019-02-17T23:03:31.218Z,18.47
2019-02-17T23:06:00.397Z,18.60
2019-02-17T23:08:29.571Z,17.67
2019-02-17T23:10:58.726Z,16.77
2019-02-17T23:13:27.868Z,17.60
2019-02-17T23:15:56.852Z,18.13
2019-02-17T23:18:25.981Z,17.67
2019-02-17T23:20:54.977Z,17.50
2019-02-17T23:23:24.051Z,18.93
2019-02-17T23:25:53.044Z,19.23
2019-02-17T23:28:22.122Z,17.67
2019-02-17T23:30:51.177Z,16.57
2019-02-17T23:33:20.245Z,16.93
2019-02-17T23:35:49.442Z,18.90
2019-02-17T23:38:18.530Z,17.80
2019-02-17T23:40:47.640Z,17.83
2019-02-17T23:43:16.738Z,17.03
2019-02-17T23:45:45.890Z,17.40
2019-02-17T23:48:14.934Z,15.90
2019-02-17T23:50:44.261Z,17.13
2019-02-17T23:53:13.421Z,17.40
2019-02-17T23:55:42.538Z,17.37
2019-02-17T23:58:11.722Z,17.53
